createdAt,value
2019-03-05T00:01:13.289Z,59.93
2019-03-05T00:03:48.887Z,59.81
2019-03-05T00:06:21.854Z,59.68
2019-03-05T00:08:57.114Z,59.62
2019-03-05T00:11:31.702Z,60.03
2019-03-05T00:14:06.115Z,60.03
2019-03-05T00:16:40.769Z,60.31
2019-03-05T00:19:13.804Z,60.08
2019-03-05T00:21:48.141Z,60.14
2019-03-05T00:25:16.290Z,59.92
2019-03-05T00:28:20.284Z,59.93
2019-03-05T00:31:31.631Z,59.96
2019-03-05T00:34:58.730Z,59.69
2019-03-05T00:38:16.760Z,59.82
2019-03-05T00:41:20.727Z,59.62
2019-03-05T00:44:41.798Z,59.79
2019-03-05T00:47:41.694Z,59.54
2019-03-05T00:51:25.260Z,59.54
2019-03-05T00:54:33.720Z,59.45
2019-03-05T00:57:19.280Z,59.22
2019-03-05T01:00:40.954Z,58.70
2019-03-05T01:03:40.070Z,58.77
2019-03-05T01:06:27.729Z,58.59
2019-03-05T01:09:02.281Z,58.69
2019-03-05T01:11:38.672Z,58.66
2019-03-05T01:14:13.791Z,58.66
2019-03-05T01:16:48.319Z,58.69
2019-03-05T01:19:22.873Z,58.71
2019-03-05T01:21:55.872Z,58.39
2019-03-05T01:24:30.255Z,58.29
2019-03-05T01:27:05.719Z,58.12
2019-03-05T01:29:40.955Z,58.12
2019-03-05T01:32:48.140Z,58.42
2019-03-05T01:35:38.769Z,58.40
2019-03-05T01:38:11.696Z,58.37
2019-03-05T01:40:49.632Z,58.59
2019-03-05T01:43:23.953Z,58.57
2019-03-05T01:45:58.387Z,58.92
2019-03-05T01:48:32.929Z,58.63
2019-03-05T01:51:09.031Z,58.63
2019-03-05T01:53:43.365Z,58.15
2019-03-05T01:56:18.889Z,58.15
2019-03-05T01:58:51.879Z,57.86
2019-03-05T02:01:27.299Z,57.89
2019-03-05T02:04:01.829Z,58.17
2019-03-05T02:06:35.083Z,58.31
2019-03-05T02:09:09.288Z,58.50
2019-03-05T02:11:43.959Z,58.63
2019-03-05T02:14:16.873Z,58.68
2019-03-05T02:16:51.257Z,58.84
2019-03-05T02:19:43.932Z,58.73
2019-03-05T02:22:26.871Z,58.81
2019-03-05T02:25:22.751Z,59.19
2019-03-05T02:28:59.953Z,59.75
2019-03-05T02:32:17.889Z,60.35
2019-03-05T02:35:41.125Z,61.20
2019-03-05T02:39:22.609Z,61.31
2019-03-05T02:46:27.289Z,61.61
2019-03-05T02:49:47.756Z,61.74
2019-03-05T02:53:00.154Z,61.94
2019-03-05T02:56:40.800Z,61.59
2019-03-05T02:59:12.296Z,61.76
2019-03-05T03:02:00.604Z,61.50
2019-03-05T03:04:38.517Z,61.43
2019-03-05T03:07:12.964Z,61.53
2019-03-05T03:10:14.410Z,61.69
2019-03-05T03:12:49.335Z,61.69
2019-03-05T03:15:23.773Z,61.66
2019-03-05T03:17:56.869Z,62.08
2019-03-05T03:20:31.285Z,61.66
2019-03-05T03:23:05.770Z,61.48
2019-03-05T03:25:40.129Z,61.25
2019-03-05T03:28:14.759Z,61.65
2019-03-05T03:30:49.112Z,61.67
2019-03-05T03:33:23.892Z,61.46
2019-03-05T03:35:58.678Z,61.37
2019-03-05T03:38:32.945Z,61.29
2019-03-05T03:41:06.961Z,61.31
2019-03-05T03:43:41.124Z,61.18
2019-03-05T03:46:15.627Z,61.24
2019-03-05T03:48:49.953Z,61.24
2019-03-05T03:51:24.325Z,61.13
2019-03-05T03:53:58.704Z,60.85
2019-03-05T03:56:33.293Z,61.09
2019-03-05T03:59:07.888Z,61.04
2019-03-05T04:01:41.065Z,60.87
2019-03-05T04:04:15.288Z,60.84
2019-03-05T04:06:49.943Z,60.97
2019-03-05T04:09:22.873Z,60.56
2019-03-05T04:11:57.108Z,60.11
2019-03-05T04:14:31.332Z,60.01
2019-03-05T04:17:05.787Z,60.01
2019-03-05T04:19:40.130Z,59.80
2019-03-05T04:22:14.686Z,59.41
2019-03-05T04:24:49.114Z,59.41
2019-03-05T04:27:23.694Z,59.31
2019-03-05T04:30:52.304Z,59.07
2019-03-05T04:33:27.302Z,58.82
2019-03-05T04:38:23.672Z,58.69
2019-03-05T04:40:58.286Z,58.69
2019-03-05T04:43:32.781Z,58.67
2019-03-05T04:46:30.417Z,58.82
2019-03-05T04:49:15.653Z,58.63
2019-03-05T04:51:53.622Z,58.54
2019-03-05T04:54:27.953Z,58.56
2019-03-05T04:57:02.877Z,58.48
2019-03-05T04:59:37.285Z,58.52
2019-03-05T05:02:11.894Z,58.29
2019-03-05T05:04:44.858Z,57.94
2019-03-05T05:07:19.290Z,58.08
2019-03-05T05:09:53.890Z,58.17
2019-03-05T05:12:28.282Z,58.23
2019-03-05T05:15:02.785Z,58.39
2019-03-05T05:17:35.860Z,58.11
2019-03-05T05:20:10.267Z,57.80
2019-03-05T05:22:44.860Z,57.69
2019-03-05T05:25:18.940Z,57.78
2019-03-05T05:27:51.863Z,57.87
2019-03-05T05:30:40.569Z,57.63
2019-03-05T05:33:15.516Z,57.63
2019-03-05T05:35:49.953Z,57.57
2019-03-05T05:38:23.064Z,57.55
2019-03-05T05:40:55.919Z,57.62
2019-03-05T05:43:30.878Z,57.92
2019-03-05T05:46:05.256Z,57.75
2019-03-05T05:48:39.915Z,57.70
2019-03-05T05:51:13.058Z,57.40
2019-03-05T05:53:47.387Z,57.35
2019-03-05T05:56:22.122Z,57.28
2019-03-05T05:58:56.738Z,57.20
2019-03-05T06:01:31.310Z,57.20
2019-03-05T06:04:05.956Z,57.20
2019-03-05T06:06:40.386Z,57.08
2019-03-05T06:09:15.286Z,57.13
2019-03-05T06:11:50.283Z,57.04
2019-03-05T06:14:25.323Z,56.65
2019-03-05T06:16:59.797Z,56.49
2019-03-05T06:19:33.290Z,56.25
2019-03-05T06:22:07.646Z,56.39
2019-03-05T06:24:42.280Z,56.52
2019-03-05T06:27:17.106Z,56.52
2019-03-05T06:29:51.745Z,56.68
2019-03-05T06:32:26.290Z,56.65
2019-03-05T06:35:00.902Z,56.82
2019-03-05T06:37:35.871Z,56.91
2019-03-05T06:40:11.998Z,57.18
2019-03-05T06:42:45.272Z,57.15
2019-03-05T06:45:20.254Z,57.06
2019-03-05T06:47:55.006Z,56.99
2019-03-05T06:50:29.648Z,57.36
2019-03-05T06:53:04.127Z,57.36
2019-03-05T06:55:38.696Z,57.67
2019-03-05T06:58:13.337Z,59.25
2019-03-05T07:00:48.148Z,61.16
2019-03-05T07:03:22.785Z,63.74
2019-03-05T07:06:32.282Z,64.52
2019-03-05T07:09:21.343Z,65.13
2019-03-05T07:13:09.385Z,65.13
2019-03-05T07:17:00.763Z,65.23
2019-03-05T07:19:58.296Z,65.58
2019-03-05T07:22:50.320Z,65.01
2019-03-05T07:25:24.936Z,63.90
2019-03-05T07:27:59.599Z,63.90
2019-03-05T07:30:34.243Z,63.81
2019-03-05T07:33:08.703Z,62.71
2019-03-05T07:35:43.730Z,62.15
2019-03-05T07:38:18.255Z,61.95
2019-03-05T07:40:52.762Z,61.95
2019-03-05T07:46:12.683Z,60.71
2019-03-05T07:48:46.943Z,60.27
2019-03-05T07:51:19.872Z,60.05
2019-03-05T07:53:55.288Z,59.45
2019-03-05T07:56:29.835Z,59.75
2019-03-05T07:59:03.274Z,59.78
2019-03-05T08:01:37.702Z,59.48
2019-03-05T08:04:12.116Z,59.48
2019-03-05T08:06:46.711Z,59.23
2019-03-05T08:09:52.277Z,58.73
2019-03-05T08:13:06.736Z,57.63
2019-03-05T08:16:26.997Z,57.87
2019-03-05T08:19:01.329Z,58.32
2019-03-05T08:21:36.757Z,58.47
2019-03-05T08:24:11.271Z,58.87
2019-03-05T08:26:45.686Z,59.59
2019-03-05T08:29:20.333Z,59.08
2019-03-05T08:31:54.949Z,58.96
2019-03-05T08:34:29.261Z,59.27
2019-03-05T08:37:03.774Z,59.08
2019-03-05T08:39:38.278Z,57.26
2019-03-05T08:42:12.705Z,57.26
2019-03-05T08:44:50.735Z,56.16
2019-03-05T08:47:23.137Z,56.31
2019-03-05T08:49:57.663Z,56.44
2019-03-05T08:52:32.256Z,56.44
2019-03-05T08:55:06.939Z,56.14
2019-03-05T08:57:41.324Z,56.16
2019-03-05T09:00:17.764Z,55.44
2019-03-05T09:02:52.252Z,54.96
2019-03-05T09:05:27.731Z,54.04
2019-03-05T09:08:03.559Z,53.21
2019-03-05T09:10:38.038Z,53.43
2019-03-05T09:13:12.780Z,52.74
2019-03-05T09:15:47.330Z,52.65
2019-03-05T09:18:23.519Z,52.71
2019-03-05T09:20:58.298Z,52.07
2019-03-05T09:23:32.889Z,51.50
2019-03-05T09:26:05.854Z,51.54
2019-03-05T09:28:40.114Z,51.38
2019-03-05T09:31:14.652Z,51.14
2019-03-05T09:33:49.133Z,51.29
2019-03-05T09:36:23.714Z,51.05
2019-03-05T09:38:58.111Z,50.46
2019-03-05T09:41:32.699Z,49.52
2019-03-05T09:44:07.116Z,49.11
2019-03-05T09:46:41.726Z,48.98
2019-03-05T09:49:16.119Z,48.26
2019-03-05T09:51:50.665Z,48.06
2019-03-05T09:54:25.246Z,48.06
2019-03-05T09:56:59.731Z,47.98
2019-03-05T09:59:32.844Z,47.38
2019-03-05T10:02:07.101Z,46.71
2019-03-05T10:04:42.256Z,45.65
2019-03-05T10:07:19.255Z,43.87
2019-03-05T10:09:52.946Z,43.75
2019-03-05T10:12:27.135Z,43.87
2019-03-05T10:15:01.742Z,43.71
2019-03-05T10:17:38.148Z,40.30
2019-03-05T10:20:16.678Z,41.47
2019-03-05T10:22:51.721Z,42.94
2019-03-05T10:25:25.360Z,43.63
2019-03-05T10:27:59.894Z,43.87
2019-03-05T10:30:33.090Z,44.76
2019-03-05T10:33:10.078Z,45.40
2019-03-05T10:35:44.776Z,46.11
2019-03-05T10:38:17.707Z,46.11
2019-03-05T10:40:53.222Z,46.21
2019-03-05T10:43:27.667Z,46.34
2019-03-05T10:46:02.277Z,45.65
2019-03-05T10:48:36.762Z,45.42
2019-03-05T10:51:11.286Z,45.23
2019-03-05T10:53:45.709Z,45.38
2019-03-05T10:56:18.853Z,45.06
2019-03-05T10:58:53.123Z,45.23
2019-03-05T11:01:27.688Z,44.75
2019-03-05T11:04:02.318Z,45.10
2019-03-05T11:06:36.950Z,44.93
2019-03-05T11:09:12.285Z,45.66
2019-03-05T11:11:46.947Z,45.66
2019-03-05T11:14:21.643Z,47.86
2019-03-05T11:16:56.246Z,47.86
2019-03-05T11:19:30.699Z,47.92
2019-03-05T11:22:07.280Z,47.59
2019-03-05T11:24:41.947Z,50.35
2019-03-05T11:27:16.709Z,51.47
2019-03-05T11:29:51.294Z,52.13
2019-03-05T11:32:25.925Z,52.54
2019-03-05T11:35:00.402Z,54.60
2019-03-05T11:37:34.950Z,55.00
2019-03-05T11:40:20.666Z,55.00
2019-03-05T11:42:48.323Z,55.65
2019-03-05T11:45:25.741Z,54.38
2019-03-05T11:47:59.577Z,54.47
2019-03-05T11:50:33.943Z,54.08
2019-03-05T11:53:08.635Z,53.71
2019-03-05T11:55:43.129Z,53.69
2019-03-05T11:58:17.675Z,53.57
2019-03-05T12:01:07.870Z,53.95
2019-03-05T12:03:42.323Z,54.93
2019-03-05T12:06:16.927Z,55.58
2019-03-05T12:08:51.284Z,56.62
2019-03-05T12:11:27.101Z,59.58
2019-03-05T12:14:01.797Z,63.46
2019-03-05T12:16:36.281Z,68.29
2019-03-05T12:19:11.269Z,68.29
2019-03-05T12:21:46.789Z,69.85
2019-03-05T12:24:23.907Z,70.72
2019-03-05T12:26:56.106Z,71.06
2019-03-05T12:29:30.702Z,71.23
2019-03-05T12:32:03.865Z,71.39
2019-03-05T12:34:37.280Z,71.36
2019-03-05T12:37:11.662Z,70.22
2019-03-05T12:39:46.940Z,70.22
2019-03-05T12:42:19.800Z,69.39
2019-03-05T12:44:54.122Z,68.18
2019-03-05T12:47:28.663Z,68.19
2019-03-05T12:50:02.952Z,68.19
2019-03-05T12:52:37.350Z,67.95
2019-03-05T12:55:12.111Z,68.24
2019-03-05T12:57:47.686Z,68.35
2019-03-05T13:00:44.936Z,69.04
2019-03-05T13:03:17.864Z,69.04
2019-03-05T13:05:52.164Z,69.03
2019-03-05T13:08:28.607Z,69.55
2019-03-05T13:11:02.923Z,69.55
2019-03-05T13:13:37.477Z,68.83
2019-03-05T13:16:13.910Z,69.21
2019-03-05T13:18:48.327Z,69.63
2019-03-05T13:21:22.909Z,69.63
2019-03-05T13:23:57.326Z,69.35
2019-03-05T13:26:31.879Z,68.90
2019-03-05T13:29:06.282Z,68.48
2019-03-05T13:31:42.099Z,67.06
2019-03-05T13:34:17.795Z,65.18
2019-03-05T13:36:51.816Z,64.45
2019-03-05T13:39:26.134Z,64.01
2019-03-05T13:42:00.688Z,63.50
2019-03-05T13:44:38.665Z,61.67
2019-03-05T13:47:13.597Z,61.52
2019-03-05T13:50:31.789Z,59.93
2019-03-05T13:54:14.637Z,59.93
2019-03-05T13:57:54.683Z,59.91
2019-03-05T14:00:27.273Z,60.51
2019-03-05T14:03:14.753Z,61.46
2019-03-05T14:06:54.289Z,62.71
2019-03-05T14:09:25.758Z,63.21
2019-03-05T14:11:58.705Z,63.79
2019-03-05T14:14:33.622Z,63.45
2019-03-05T14:17:33.285Z,62.60
2019-03-05T14:20:12.286Z,61.68
2019-03-05T14:22:46.706Z,60.87
2019-03-05T14:25:21.284Z,61.46
2019-03-05T14:27:55.794Z,61.83
2019-03-05T14:30:28.799Z,61.83
2019-03-05T14:33:02.976Z,62.05
2019-03-05T14:35:37.970Z,61.55
2019-03-05T14:38:12.369Z,61.55
2019-03-05T14:40:46.911Z,61.05
2019-03-05T14:43:21.208Z,60.78
2019-03-05T14:45:56.282Z,61.65
2019-03-05T14:48:31.901Z,63.00
2019-03-05T14:51:05.948Z,63.00
2019-03-05T14:53:40.736Z,62.21
2019-03-05T14:56:14.113Z,62.21
2019-03-05T14:58:48.735Z,62.85
2019-03-05T15:01:23.295Z,63.64
2019-03-05T15:03:58.230Z,63.17
2019-03-05T15:06:32.724Z,61.81
2019-03-05T15:09:06.792Z,59.65
2019-03-05T15:11:39.895Z,57.47
2019-03-05T15:14:14.290Z,57.95
2019-03-05T15:16:48.929Z,57.64
2019-03-05T15:19:23.281Z,57.75
2019-03-05T15:21:58.123Z,57.44
2019-03-05T15:24:32.890Z,56.91
2019-03-05T15:27:05.884Z,53.66
2019-03-05T15:29:40.291Z,53.66
2019-03-05T15:32:14.959Z,51.01
2019-03-05T15:34:49.722Z,47.06
2019-03-05T15:37:24.161Z,44.42
2019-03-05T15:39:58.801Z,48.09
2019-03-05T15:42:31.838Z,48.09
2019-03-05T15:45:06.685Z,49.50
2019-03-05T15:47:42.701Z,48.54
2019-03-05T15:50:19.351Z,48.22
2019-03-05T15:52:53.896Z,50.07
2019-03-05T15:55:28.405Z,52.59
2019-03-05T15:58:03.279Z,54.00
2019-03-05T16:00:37.764Z,55.12
2019-03-05T16:03:10.793Z,56.22
2019-03-05T16:05:45.277Z,56.49
2019-03-05T16:08:21.005Z,56.70
2019-03-05T16:10:58.629Z,56.66
2019-03-05T16:13:32.757Z,57.36
2019-03-05T16:16:06.908Z,58.27
2019-03-05T16:18:41.401Z,59.44
2019-03-05T16:21:16.108Z,59.44
2019-03-05T16:23:50.757Z,60.68
2019-03-05T16:26:25.281Z,60.68
2019-03-05T16:28:59.873Z,60.91
2019-03-05T16:31:59.351Z,61.07
2019-03-05T16:34:51.410Z,62.40
2019-03-05T16:37:50.632Z,62.90
2019-03-05T16:40:58.864Z,64.22
2019-03-05T16:43:43.708Z,66.06
2019-03-05T16:46:54.958Z,67.06
2019-03-05T16:49:47.626Z,67.39
2019-03-05T16:52:43.516Z,67.53
2019-03-05T16:55:26.291Z,67.53
2019-03-05T16:58:22.357Z,67.62
2019-03-05T17:01:34.284Z,67.89
2019-03-05T17:04:36.718Z,67.87
2019-03-05T17:07:27.334Z,67.51
2019-03-05T17:10:21.294Z,67.14
2019-03-05T17:12:56.115Z,67.47
2019-03-05T17:15:30.670Z,67.64
2019-03-05T17:18:05.266Z,67.56
2019-03-05T17:20:39.751Z,67.67
2019-03-05T17:23:14.687Z,67.91
2019-03-05T17:25:49.279Z,68.01
2019-03-05T17:28:23.946Z,67.90
2019-03-05T17:30:58.267Z,67.83
2019-03-05T17:33:33.918Z,67.83
2019-03-05T17:36:08.315Z,68.04
2019-03-05T17:38:42.944Z,68.21
2019-03-05T17:41:17.735Z,68.61
2019-03-05T17:43:51.855Z,68.84
2019-03-05T17:46:26.277Z,68.81
2019-03-05T17:49:00.986Z,68.73
2019-03-05T17:51:36.273Z,68.79
2019-03-05T17:54:10.941Z,68.79
2019-03-05T17:56:45.672Z,68.37
2019-03-05T17:59:20.326Z,68.42
2019-03-05T18:01:55.274Z,68.45
2019-03-05T18:04:29.798Z,68.03
2019-03-05T18:07:04.717Z,67.91
2019-03-05T18:09:37.691Z,68.00
2019-03-05T18:12:12.127Z,67.74
2019-03-05T18:14:46.728Z,67.79
2019-03-05T18:17:20.061Z,67.62
2019-03-05T18:19:55.281Z,67.82
2019-03-05T18:22:29.861Z,67.81
2019-03-05T18:25:02.859Z,67.81
2019-03-05T18:28:09.684Z,67.74
2019-03-05T18:30:42.848Z,67.73
2019-03-05T18:33:17.273Z,67.67
2019-03-05T18:35:51.930Z,67.62
2019-03-05T18:38:26.635Z,66.98
2019-03-05T18:41:01.289Z,66.98
2019-03-05T18:43:36.260Z,67.31
2019-03-05T18:46:10.943Z,67.32
2019-03-05T18:48:45.924Z,67.61
2019-03-05T18:51:18.872Z,67.53
2019-03-05T18:53:53.274Z,67.29
2019-03-05T18:56:27.894Z,67.13
2019-03-05T18:59:01.109Z,67.08
2019-03-05T19:01:36.444Z,67.08
2019-03-05T19:04:11.242Z,67.56
2019-03-05T19:08:31.321Z,67.63
2019-03-05T19:11:06.114Z,67.83
2019-03-05T19:13:40.978Z,67.79
2019-03-05T19:16:15.525Z,67.94
2019-03-05T19:18:49.935Z,67.96
2019-03-05T19:21:24.316Z,67.93
2019-03-05T19:23:58.943Z,68.01
2019-03-05T19:26:33.638Z,67.92
2019-03-05T19:29:08.283Z,68.04
2019-03-05T19:31:43.275Z,67.90
2019-03-05T19:34:18.108Z,68.22
2019-03-05T19:36:52.716Z,68.03
2019-03-05T19:39:27.278Z,68.08
2019-03-05T19:42:02.293Z,68.74
2019-03-05T19:44:37.272Z,68.74
2019-03-05T19:47:11.899Z,68.68
2019-03-05T19:49:46.687Z,68.61
2019-03-05T19:52:21.288Z,68.76
2019-03-05T19:54:58.298Z,68.23
2019-03-05T19:57:33.290Z,68.33
2019-03-05T20:00:32.968Z,68.10
2019-03-05T20:03:08.176Z,67.69
2019-03-05T20:05:43.256Z,67.30
2019-03-05T20:08:18.305Z,66.98
2019-03-05T20:10:53.281Z,66.80
2019-03-05T20:13:28.558Z,66.54
2019-03-05T20:16:03.284Z,66.43
2019-03-05T20:18:37.944Z,66.29
2019-03-05T20:21:12.946Z,66.33
2019-03-05T20:23:46.264Z,66.67
2019-03-05T20:26:20.721Z,66.79
2019-03-05T20:28:53.905Z,66.79
2019-03-05T20:31:27.134Z,66.92
2019-03-05T20:34:02.284Z,67.13
2019-03-05T20:36:37.286Z,67.13
2019-03-05T20:39:13.948Z,67.17
2019-03-05T20:41:50.270Z,67.19
2019-03-05T20:44:25.003Z,67.22
2019-03-05T20:46:59.762Z,66.81
2019-03-05T20:49:33.110Z,67.12
2019-03-05T20:53:40.708Z,66.92
2019-03-05T20:56:15.665Z,66.81
2019-03-05T20:58:48.786Z,66.78
2019-03-05T21:01:23.431Z,66.68
2019-03-05T21:03:58.134Z,66.72
2019-03-05T21:06:33.285Z,66.86
2019-03-05T21:09:20.807Z,66.91
2019-03-05T21:11:55.748Z,66.94
2019-03-05T21:14:30.285Z,67.17
2019-03-05T21:17:04.749Z,67.08
2019-03-05T21:19:37.870Z,67.22
2019-03-05T21:22:46.870Z,67.07
2019-03-05T21:25:21.782Z,67.07
2019-03-05T21:27:55.037Z,67.07
2019-03-05T21:30:28.045Z,66.99
2019-03-05T21:33:02.307Z,67.05
2019-03-05T21:35:36.936Z,67.27
2019-03-05T21:38:11.329Z,67.28
2019-03-05T21:40:45.946Z,67.19
2019-03-05T21:43:19.593Z,67.25
2019-03-05T21:45:55.320Z,67.37
2019-03-05T21:48:29.955Z,67.27
2019-03-05T21:51:04.832Z,67.40
2019-03-05T21:53:39.337Z,67.40
2019-03-05T21:56:13.901Z,67.50
2019-03-05T21:58:47.061Z,67.66
2019-03-05T22:01:21.311Z,67.74
2019-03-05T22:03:56.111Z,67.75
2019-03-05T22:06:30.776Z,67.77
2019-03-05T22:09:05.006Z,67.79
2019-03-05T22:11:40.898Z,68.07
2019-03-05T22:14:14.619Z,68.01
2019-03-05T22:16:48.889Z,68.17
2019-03-05T22:19:23.281Z,68.06
2019-03-05T22:21:58.093Z,68.22
2019-03-05T22:24:32.663Z,68.17
2019-03-05T22:27:07.111Z,68.17
2019-03-05T22:29:41.886Z,67.97
2019-03-05T22:32:16.301Z,67.93
2019-03-05T22:34:52.588Z,67.81
2019-03-05T22:37:27.282Z,67.55
2019-03-05T22:40:03.291Z,67.86
2019-03-05T22:42:37.746Z,67.88
2019-03-05T22:45:16.358Z,67.89
2019-03-05T22:47:51.284Z,67.82
2019-03-05T22:50:26.972Z,67.75
2019-03-05T22:53:01.768Z,67.57
2019-03-05T22:55:36.291Z,67.36
2019-03-05T22:58:11.215Z,67.41
2019-03-05T23:01:12.443Z,67.18
2019-03-05T23:03:58.286Z,67.19
2019-03-05T23:06:33.069Z,67.19
2019-03-05T23:09:14.915Z,67.19
2019-03-05T23:11:49.796Z,67.21
2019-03-05T23:14:23.574Z,67.33
2019-03-05T23:16:57.953Z,67.12
2019-03-05T23:19:32.289Z,67.24
2019-03-05T23:22:06.975Z,67.41
2019-03-05T23:24:41.602Z,67.29
2019-03-05T23:27:16.255Z,67.34
2019-03-05T23:29:51.740Z,67.21
2019-03-05T23:32:24.794Z,66.89
2019-03-05T23:34:58.667Z,66.75
2019-03-05T23:37:33.119Z,67.21
2019-03-05T23:40:07.959Z,67.18
2019-03-05T23:42:42.951Z,67.07
2019-03-05T23:45:16.288Z,67.07
2019-03-05T23:47:50.705Z,67.69
2019-03-05T23:50:25.269Z,67.69
2019-03-05T23:52:59.720Z,67.47
2019-03-05T23:55:34.376Z,67.52
2019-03-05T23:58:08.797Z,67.70
